Time;durP1;ratioP1;P1;durP2;ratioP2;P2;SDS_P1;SDS_P2;PMS_P1;PMS_P2;Temp;Humidity;BMP_temperature;BMP_pressure;BME280_temperature;BME280_humidity;BME280_pressure;Samples;Min_cycle;Max_cycle;Signal;HPM_P1;HPM_P2
2021/04/30 00:02:20;;;;;;;3.15;2.00;;;9.40;67.30;;;;;;5054576;28;20025;-70
2021/04/30 00:04:46;;;;;;;3.15;2.33;;;9.30;68.00;;;;;;5054037;28;20126;-70
2021/04/30 00:07:11;;;;;;;3.88;2.33;;;9.30;68.00;;;;;;5054405;28;20022;-70
2021/04/30 00:09:37;;;;;;;3.05;2.35;;;9.20;69.00;;;;;;5054829;28;20080;-70
2021/04/30 00:12:03;;;;;;;2.42;2.10;;;9.10;69.40;;;;;;5053026;28;20033;-70
2021/04/30 00:14:29;;;;;;;3.42;2.05;;;9.10;69.40;;;;;;5053071;28;20028;-70
2021/04/30 00:16:55;;;;;;;4.25;2.30;;;9.10;69.40;;;;;;5052204;28;20071;-69
2021/04/30 00:19:21;;;;;;;3.38;1.90;;;9.10;69.90;;;;;;5050985;28;20024;-69
2021/04/30 00:21:47;;;;;;;2.72;2.03;;;8.90;70.30;;;;;;5051448;28;20116;-69
2021/04/30 00:24:14;;;;;;;3.38;2.25;;;9.00;70.40;;;;;;5051266;28;20021;-70
2021/04/30 00:26:40;;;;;;;3.25;2.10;;;8.80;71.50;;;;;;5051546;28;20021;-69
2021/04/30 00:29:06;;;;;;;4.15;2.35;;;8.70;71.00;;;;;;5051345;28;20027;-69
2021/04/30 00:31:32;;;;;;;2.92;1.90;;;8.80;70.90;;;;;;5051140;28;20025;-68
2021/04/30 00:33:58;;;;;;;4.32;2.75;;;8.80;70.50;;;;;;5052972;28;20024;-69
2021/04/30 00:36:24;;;;;;;3.63;2.33;;;8.70;70.50;;;;;;5050857;28;20131;-69
2021/04/30 00:38:49;;;;;;;2.45;1.90;;;8.60;70.50;;;;;;5051750;28;20128;-69
2021/04/30 00:41:15;;;;;;;4.43;2.45;;;8.70;69.90;;;;;;5051185;28;20025;-72
2021/04/30 00:43:41;;;;;;;3.03;2.38;;;8.70;70.00;;;;;;5052060;28;20032;-69
2021/04/30 00:46:06;;;;;;;4.72;2.28;;;8.70;69.90;;;;;;5052695;28;20025;-69
2021/04/30 00:48:32;;;;;;;2.55;2.00;;;8.70;69.90;;;;;;5050405;28;20119;-69
2021/04/30 00:50:57;;;;;;;3.40;2.33;;;8.50;70.00;;;;;;5052490;28;20052;-69
2021/04/30 00:53:23;;;;;;;3.55;2.38;;;8.40;70.60;;;;;;5051703;28;20021;-69
2021/04/30 00:55:49;;;;;;;3.40;2.53;;;8.40;71.10;;;;;;5065989;28;20377;-70
2021/04/30 00:58:16;;;;;;;3.95;2.58;;;8.40;71.70;;;;;;5071934;28;20024;-75
2021/04/30 01:00:42;;;;;;;4.18;2.40;;;8.40;71.60;;;;;;5071505;28;20067;-69
2021/04/30 01:03:09;;;;;;;4.38;2.55;;;8.40;71.40;;;;;;5070985;28;20048;-70
2021/04/30 01:05:36;;;;;;;3.08;2.22;;;8.30;71.70;;;;;;5071213;28;20038;-69
2021/04/30 01:08:04;;;;;;;2.95;2.22;;;8.20;72.10;;;;;;5070675;28;20017;-70
2021/04/30 01:10:29;;;;;;;2.53;2.00;;;8.20;72.10;;;;;;5071616;28;20075;-69
2021/04/30 01:12:55;;;;;;;2.80;1.95;;;8.20;71.90;;;;;;5072321;28;20021;-69
2021/04/30 01:15:21;;;;;;;3.53;2.30;;;8.20;72.30;;;;;;5070634;28;20062;-69
2021/04/30 01:17:47;;;;;;;3.08;2.00;;;8.10;72.50;;;;;;5070614;28;20119;-69
2021/04/30 01:20:15;;;;;;;4.63;2.63;;;8.10;72.20;;;;;;5070564;28;20024;-69
2021/04/30 01:22:43;;;;;;;2.65;2.00;;;8.20;71.70;;;;;;5071777;28;20032;-69
2021/04/30 01:25:21;;;;;;;4.90;2.33;;;8.20;72.10;;;;;;5062720;28;20454;-69
2021/04/30 01:27:47;;;;;;;3.05;2.35;;;8.20;71.40;;;;;;5050703;28;20476;-69
2021/04/30 01:30:28;;;;;;;3.13;2.20;;;8.20;71.90;;;;;;5051420;28;20061;-70
2021/04/30 01:32:54;;;;;;;3.28;2.40;;;8.20;73.00;;;;;;5051936;28;20466;-69
2021/04/30 01:35:25;;;;;;;2.95;2.25;;;8.10;72.50;;;;;;5051703;28;20032;-69
2021/04/30 01:37:52;;;;;;;2.35;2.08;;;8.00;72.90;;;;;;5049973;28;20372;-69
2021/04/30 01:40:20;;;;;;;5.00;2.22;;;8.00;73.10;;;;;;5050877;28;20033;-69
2021/04/30 01:43:02;;;;;;;2.67;1.98;;;7.90;73.20;;;;;;5051929;28;20017;-69
2021/04/30 01:45:38;;;;;;;4.63;2.58;;;7.80;73.90;;;;;;5049663;28;20021;-70
2021/04/30 01:48:11;;;;;;;2.80;2.17;;;7.70;73.70;;;;;;5050534;28;20052;-69
2021/04/30 01:50:36;;;;;;;2.50;2.13;;;7.60;73.80;;;;;;5050798;28;20219;-69
2021/04/30 01:53:02;;;;;;;3.25;2.60;;;7.60;74.30;;;;;;5050890;28;20108;-69
2021/04/30 01:55:29;;;;;;;6.03;2.40;;;7.50;74.10;;;;;;5050097;28;20045;-72
2021/04/30 01:57:55;;;;;;;2.80;1.93;;;7.40;74.60;;;;;;5051457;28;20025;-69
2021/04/30 02:00:27;;;;;;;4.18;2.20;;;7.50;73.90;;;;;;5049489;28;20473;-69
2021/04/30 02:02:56;;;;;;;3.72;2.55;;;7.40;73.90;;;;;;5050525;28;20082;-69
2021/04/30 02:05:25;;;;;;;3.77;2.60;;;7.40;74.20;;;;;;5049645;28;20029;-69
2021/04/30 02:07:50;;;;;;;3.00;2.25;;;7.40;74.30;;;;;;5051254;28;20013;-69
2021/04/30 02:10:26;;;;;;;4.75;2.80;;;7.40;74.20;;;;;;5051082;28;20040;-69
2021/04/30 02:12:53;;;;;;;3.67;2.38;;;7.40;74.10;;;;;;5051620;28;20029;-69
2021/04/30 02:15:21;;;;;;;4.35;2.75;;;7.40;73.60;;;;;;5049730;28;20017;-75
2021/04/30 02:17:47;;;;;;;3.80;2.93;;;7.40;73.90;;;;;;5051044;28;20024;-70
2021/04/30 02:20:14;;;;;;;4.63;3.10;;;7.40;74.00;;;;;;5049968;28;20021;-68
2021/04/30 02:22:41;;;;;;;4.43;2.83;;;7.30;74.20;;;;;;5050707;28;20033;-69
2021/04/30 02:25:10;;;;;;;3.85;2.70;;;7.30;75.40;;;;;;5059167;28;20025;-69
2021/04/30 02:27:35;;;;;;;4.30;2.57;;;7.30;75.20;;;;;;5070934;28;20017;-69
2021/04/30 02:30:01;;;;;;;5.78;2.72;;;7.20;75.40;;;;;;5070976;28;20023;-71
2021/04/30 02:32:29;;;;;;;4.27;3.20;;;7.30;75.20;;;;;;5071166;28;20032;-69
2021/04/30 02:34:56;;;;;;;4.13;3.03;;;7.40;75.00;;;;;;5071813;28;20021;-69
2021/04/30 02:37:24;;;;;;;4.80;2.65;;;7.30;75.00;;;;;;5071636;28;20023;-70
2021/04/30 02:39:50;;;;;;;4.63;2.87;;;7.40;74.70;;;;;;5074315;28;20044;-70
2021/04/30 02:42:16;;;;;;;5.77;3.07;;;7.30;74.70;;;;;;5073123;28;20029;-69
2021/04/30 02:44:42;;;;;;;5.03;2.90;;;7.30;74.90;;;;;;5072839;28;20027;-69
2021/04/30 02:47:08;;;;;;;3.70;3.00;;;7.40;74.30;;;;;;5073524;28;20027;-69
2021/04/30 02:49:41;;;;;;;3.67;2.87;;;7.40;73.70;;;;;;5073889;28;20021;-69
2021/04/30 02:52:09;;;;;;;5.27;3.00;;;7.40;73.70;;;;;;5073464;28;20028;-69
2021/04/30 02:54:35;;;;;;;5.40;3.03;;;7.30;74.50;;;;;;5070846;28;20021;-69
2021/04/30 02:57:01;;;;;;;4.20;3.30;;;7.20;74.80;;;;;;5054823;28;20029;-69
2021/04/30 02:59:28;;;;;;;5.30;2.93;;;7.20;75.00;;;;;;5052233;28;20070;-69
2021/04/30 03:01:54;;;;;;;3.40;2.97;;;7.10;75.40;;;;;;5054318;28;20025;-69
2021/04/30 03:04:20;;;;;;;4.93;3.57;;;7.10;75.80;;;;;;5053794;28;20039;-76
2021/04/30 03:06:46;;;;;;;3.87;3.10;;;7.00;76.00;;;;;;5054322;28;20024;-69
2021/04/30 03:09:11;;;;;;;4.47;3.10;;;7.10;76.00;;;;;;5054264;28;20090;-69
2021/04/30 03:11:37;;;;;;;6.50;3.10;;;7.10;75.70;;;;;;5053758;28;20021;-69
2021/04/30 03:14:03;;;;;;;4.87;2.83;;;7.20;75.90;;;;;;5053304;28;20365;-69
2021/04/30 03:16:29;;;;;;;4.13;2.70;;;7.20;75.80;;;;;;5053781;28;20048;-69
2021/04/30 03:18:55;;;;;;;4.13;3.23;;;7.20;75.70;;;;;;5053829;28;20458;-69
2021/04/30 03:21:20;;;;;;;5.53;3.27;;;7.10;76.00;;;;;;5053562;28;20048;-75
2021/04/30 03:23:46;;;;;;;4.30;3.03;;;7.00;76.40;;;;;;5052638;28;20021;-70
2021/04/30 03:26:12;;;;;;;4.27;2.97;;;7.10;76.40;;;;;;5052432;28;20056;-69
2021/04/30 03:28:37;;;;;;;5.30;3.40;;;7.10;76.20;;;;;;5052041;28;20025;-69
2021/04/30 03:31:03;;;;;;;6.37;3.27;;;7.10;76.20;;;;;;5053517;28;20052;-69
2021/04/30 03:33:29;;;;;;;9.03;3.23;;;7.00;76.40;;;;;;5053824;28;20021;-69
2021/04/30 03:35:54;;;;;;;4.00;2.93;;;7.00;76.40;;;;;;5052560;28;20060;-69
2021/04/30 03:38:20;;;;;;;5.23;2.90;;;7.10;76.50;;;;;;5051447;28;20079;-73
2021/04/30 03:40:45;;;;;;;4.20;2.67;;;7.10;76.50;;;;;;5052843;28;20036;-69
2021/04/30 03:43:11;;;;;;;4.03;2.83;;;7.20;76.50;;;;;;5053479;28;20307;-69
2021/04/30 03:45:37;;;;;;;4.57;3.10;;;7.20;76.50;;;;;;5051745;28;20029;-69
2021/04/30 03:48:02;;;;;;;4.27;3.10;;;7.20;76.60;;;;;;5051228;28;20035;-69
2021/04/30 03:50:28;;;;;;;5.60;3.17;;;7.20;76.80;;;;;;5051634;28;20061;-69
2021/04/30 03:52:54;;;;;;;5.77;3.57;;;7.10;76.60;;;;;;5052504;28;20410;-69
2021/04/30 03:55:19;;;;;;;4.23;2.93;;;7.10;76.80;;;;;;5063310;28;20484;-68
2021/04/30 03:57:45;;;;;;;5.87;3.40;;;7.10;77.00;;;;;;5072670;28;20523;-69
2021/04/30 04:00:11;;;;;;;5.27;3.20;;;7.10;77.80;;;;;;5071504;28;20327;-69
2021/04/30 04:02:37;;;;;;;4.97;3.27;;;7.10;76.90;;;;;;5072429;28;20104;-69
2021/04/30 04:05:03;;;;;;;5.10;3.43;;;7.10;77.40;;;;;;5073158;28;20158;-69
2021/04/30 04:07:28;;;;;;;6.93;3.13;;;7.20;77.30;;;;;;5072639;28;20035;-69
2021/04/30 04:09:54;;;;;;;5.90;3.50;;;7.30;77.20;;;;;;5071653;28;20123;-70
2021/04/30 04:12:20;;;;;;;4.90;3.33;;;7.30;77.30;;;;;;5073068;28;20093;-70
2021/04/30 04:14:45;;;;;;;4.60;3.33;;;7.40;77.40;;;;;;5073257;28;20028;-69
2021/04/30 04:17:14;;;;;;;4.37;3.30;;;7.30;76.90;;;;;;5073206;28;20463;-69
2021/04/30 04:19:40;;;;;;;6.03;3.67;;;7.50;76.60;;;;;;5071309;28;20027;-69
2021/04/30 04:22:05;;;;;;;7.23;3.73;;;7.50;76.30;;;;;;5071245;28;20021;-70
2021/04/30 04:24:31;;;;;;;7.27;4.00;;;7.60;76.50;;;;;;5070831;28;20475;-69
2021/04/30 04:26:57;;;;;;;6.10;3.60;;;7.70;76.30;;;;;;5072602;28;20043;-70
2021/04/30 04:29:22;;;;;;;5.03;3.20;;;7.70;74.90;;;;;;5071514;28;20442;-71
2021/04/30 04:31:48;;;;;;;5.80;3.60;;;7.70;74.60;;;;;;5072339;28;20024;-69
2021/04/30 04:34:14;;;;;;;6.83;3.50;;;7.80;74.20;;;;;;5072726;28;20039;-69
2021/04/30 04:36:39;;;;;;;5.70;3.63;;;7.80;74.50;;;;;;5071343;28;20023;-69
2021/04/30 04:39:05;;;;;;;6.03;3.87;;;7.80;73.70;;;;;;5071642;28;20045;-70
2021/04/30 04:41:31;;;;;;;5.27;3.33;;;7.80;73.40;;;;;;5070668;28;20465;-69
2021/04/30 04:43:56;;;;;;;5.10;3.50;;;7.90;73.30;;;;;;5071181;28;20056;-69
2021/04/30 04:46:22;;;;;;;5.13;3.80;;;7.90;73.10;;;;;;5070992;28;20388;-70
2021/04/30 04:48:48;;;;;;;6.57;3.80;;;8.00;73.60;;;;;;5070663;28;20187;-69
2021/04/30 04:51:13;;;;;;;6.57;3.80;;;8.00;73.80;;;;;;5071052;28;20120;-69
2021/04/30 04:53:39;;;;;;;6.93;3.50;;;7.90;73.70;;;;;;5072178;28;20047;-69
2021/04/30 04:56:05;;;;;;;7.47;3.80;;;7.90;74.00;;;;;;5071352;28;20107;-69
2021/04/30 04:58:30;;;;;;;6.03;3.87;;;8.00;74.30;;;;;;5070269;28;20017;-69
2021/04/30 05:00:56;;;;;;;5.63;3.73;;;7.90;73.60;;;;;;5071927;28;20025;-70
2021/04/30 05:03:21;;;;;;;5.97;3.83;;;7.90;73.50;;;;;;5072066;28;20025;-70
2021/04/30 05:05:47;;;;;;;6.10;3.83;;;7.90;73.60;;;;;;5071608;28;20469;-70
2021/04/30 05:08:13;;;;;;;5.23;3.50;;;7.90;73.60;;;;;;5070790;28;20044;-69
2021/04/30 05:10:38;;;;;;;5.87;3.90;;;7.90;74.00;;;;;;5071131;28;20043;-69
2021/04/30 05:13:04;;;;;;;5.53;3.63;;;7.90;75.10;;;;;;5071039;28;20021;-70
2021/04/30 05:15:29;;;;;;;5.20;4.13;;;7.90;75.40;;;;;;5070219;28;20031;-69
2021/04/30 05:17:55;;;;;;;8.60;3.63;;;7.80;75.40;;;;;;5072381;28;20021;-69
2021/04/30 05:20:21;;;;;;;5.90;3.73;;;7.80;75.50;;;;;;5070671;28;20449;-69
2021/04/30 05:22:46;;;;;;;7.97;4.50;;;7.90;75.70;;;;;;5072061;28;20167;-69
2021/04/30 05:25:13;;;;;;;6.15;4.30;;;8.00;75.90;;;;;;5071887;28;20066;-69
2021/04/30 05:27:42;;;;;;;8.55;4.45;;;8.00;75.90;;;;;;5070800;28;20024;-69
2021/04/30 05:30:11;;;;;;;8.73;4.65;;;8.10;75.40;;;;;;5071249;28;20403;-69
2021/04/30 05:32:37;;;;;;;7.35;4.82;;;8.10;74.40;;;;;;5072040;28;20025;-69
2021/04/30 05:35:04;;;;;;;6.93;4.15;;;8.10;74.80;;;;;;5072555;28;20353;-69
2021/04/30 05:37:31;;;;;;;6.45;4.20;;;8.10;74.60;;;;;;5071909;28;20021;-69
2021/04/30 05:39:58;;;;;;;7.30;4.45;;;8.10;74.00;;;;;;5072604;28;20052;-69
2021/04/30 05:42:25;;;;;;;9.17;4.40;;;8.10;73.90;;;;;;5072391;28;20031;-69
2021/04/30 05:44:52;;;;;;;7.10;4.40;;;8.10;74.00;;;;;;5070583;28;20031;-69
2021/04/30 05:47:18;;;;;;;7.55;4.30;;;8.20;74.10;;;;;;5072384;28;20016;-69
2021/04/30 05:49:44;;;;;;;9.20;4.85;;;8.30;73.80;;;;;;5070458;28;20020;-69
2021/04/30 05:52:10;;;;;;;8.90;5.20;;;8.40;72.70;;;;;;5071062;28;20035;-69
2021/04/30 05:54:35;;;;;;;9.50;5.20;;;8.40;72.00;;;;;;5071507;28;20024;-70
2021/04/30 05:57:01;;;;;;;8.63;5.20;;;8.40;72.20;;;;;;5071313;28;20017;-70
2021/04/30 05:59:27;;;;;;;10.63;5.03;;;8.50;72.30;;;;;;5071136;28;20131;-69
2021/04/30 06:01:52;;;;;;;8.63;4.88;;;8.40;72.40;;;;;;5070359;28;20389;-70
2021/04/30 06:04:18;;;;;;;7.85;5.10;;;8.50;72.50;;;;;;5072037;28;20488;-69
2021/04/30 06:06:50;;;;;;;8.48;4.85;;;8.60;72.20;;;;;;5070331;28;20028;-69
2021/04/30 06:09:18;;;;;;;7.95;4.93;;;8.60;71.40;;;;;;5071976;28;20029;-70
2021/04/30 06:11:44;;;;;;;10.05;5.47;;;8.50;71.20;;;;;;5074720;28;20107;-70
2021/04/30 06:14:13;;;;;;;8.30;5.13;;;8.60;70.80;;;;;;5074648;28;20111;-70
2021/04/30 06:16:40;;;;;;;8.00;4.63;;;8.70;71.00;;;;;;5075014;28;20488;-69
2021/04/30 06:19:05;;;;;;;9.52;5.30;;;8.70;70.70;;;;;;5075559;28;20028;-69
2021/04/30 06:21:32;;;;;;;10.18;5.45;;;8.60;70.30;;;;;;5073842;28;20517;-70
2021/04/30 06:23:59;;;;;;;9.48;5.47;;;8.60;70.70;;;;;;5074427;28;20025;-69
2021/04/30 06:26:25;;;;;;;9.95;5.75;;;8.70;70.70;;;;;;5074435;28;20052;-69
2021/04/30 06:28:50;;;;;;;8.15;5.38;;;8.80;70.90;;;;;;5075400;28;20484;-69
2021/04/30 06:31:16;;;;;;;7.80;5.07;;;8.80;70.60;;;;;;5065341;28;20029;-69
2021/04/30 06:33:43;;;;;;;8.20;4.90;;;9.00;70.50;;;;;;5054722;28;20379;-69
2021/04/30 06:36:09;;;;;;;8.07;4.90;;;8.90;70.20;;;;;;5055602;28;20021;-69
2021/04/30 06:38:34;;;;;;;9.27;5.05;;;8.90;69.50;;;;;;5054685;28;20041;-69
2021/04/30 06:41:00;;;;;;;8.60;5.05;;;8.90;70.40;;;;;;5044459;28;20461;-69
2021/04/30 06:43:26;;;;;;;9.05;5.47;;;8.90;70.60;;;;;;5052215;28;20057;-70
2021/04/30 06:45:52;;;;;;;11.00;5.20;;;8.90;71.40;;;;;;5054488;28;20025;-69
2021/04/30 06:48:17;;;;;;;7.43;4.95;;;8.90;71.30;;;;;;5055219;28;20032;-69
2021/04/30 06:50:43;;;;;;;10.57;4.38;;;8.90;70.50;;;;;;5054099;28;20020;-70
2021/04/30 06:53:09;;;;;;;9.20;5.32;;;8.90;71.10;;;;;;5054565;28;20029;-69
2021/04/30 06:55:34;;;;;;;7.40;5.10;;;8.90;71.10;;;;;;5054169;28;20032;-73
2021/04/30 06:58:00;;;;;;;8.02;5.38;;;9.00;71.20;;;;;;5052962;28;20036;-69
2021/04/30 07:00:26;;;;;;;8.75;5.18;;;9.00;70.30;;;;;;5054311;28;20083;-69
2021/04/30 07:02:51;;;;;;;9.52;5.70;;;9.10;69.90;;;;;;5053071;28;20511;-69
2021/04/30 07:05:17;;;;;;;8.63;4.97;;;9.10;70.00;;;;;;5054425;28;20381;-69
2021/04/30 07:07:43;;;;;;;10.07;5.68;;;9.10;70.00;;;;;;5052274;28;20465;-69
2021/04/30 07:10:09;;;;;;;9.00;5.45;;;9.10;69.80;;;;;;5052235;28;20029;-69
2021/04/30 07:12:37;;;;;;;8.70;5.30;;;9.00;69.80;;;;;;5052558;28;20079;-74
2021/04/30 07:15:07;;;;;;;9.45;5.50;;;9.10;70.20;;;;;;5052709;28;20481;-69
2021/04/30 07:17:33;;;;;;;11.88;5.70;;;9.10;69.70;;;;;;5052384;28;20466;-73
2021/04/30 07:19:59;;;;;;;9.60;6.10;;;9.20;69.40;;;;;;5052361;28;20078;-69
2021/04/30 07:22:25;;;;;;;11.77;6.13;;;9.20;69.10;;;;;;5052061;28;20086;-70
2021/04/30 07:24:51;;;;;;;10.88;6.00;;;9.30;68.60;;;;;;5053040;28;20493;-69
2021/04/30 07:27:19;;;;;;;11.85;6.30;;;9.30;67.50;;;;;;5054171;28;20154;-69
2021/04/30 07:29:45;;;;;;;9.77;6.30;;;9.40;67.50;;;;;;5052121;28;20029;-70
2021/04/30 07:32:11;;;;;;;10.90;5.72;;;9.40;67.30;;;;;;5052634;28;20041;-69
2021/04/30 07:34:38;;;;;;;10.40;5.93;;;9.40;67.30;;;;;;5053059;28;20021;-74
2021/04/30 07:37:05;;;;;;;10.93;6.40;;;9.40;67.00;;;;;;5052772;28;20021;-69
2021/04/30 07:39:32;;;;;;;11.45;5.70;;;9.40;67.20;;;;;;5056358;28;20414;-71
2021/04/30 07:41:58;;;;;;;9.23;5.65;;;9.40;67.20;;;;;;5050527;28;20053;-70
2021/04/30 07:44:24;;;;;;;10.65;6.05;;;9.40;67.00;;;;;;5056906;28;20118;-70
2021/04/30 07:46:50;;;;;;;11.45;6.35;;;9.40;67.50;;;;;;5052246;28;20024;-69
2021/04/30 07:49:16;;;;;;;12.93;7.18;;;9.50;68.50;;;;;;5053116;28;20101;-69
2021/04/30 07:51:41;;;;;;;10.60;6.38;;;9.50;68.70;;;;;;5051227;28;20032;-69
2021/04/30 07:54:07;;;;;;;11.52;6.65;;;9.50;68.80;;;;;;5052964;28;20063;-70
2021/04/30 07:56:33;;;;;;;10.50;6.40;;;9.40;69.00;;;;;;5053394;28;20009;-72
2021/04/30 07:58:58;;;;;;;10.93;6.60;;;9.40;69.80;;;;;;5055342;28;20020;-70
2021/04/30 08:01:24;;;;;;;10.40;6.57;;;9.40;69.30;;;;;;5053491;28;20060;-70
2021/04/30 08:03:50;;;;;;;9.80;7.05;;;9.30;69.40;;;;;;5052148;28;20119;-70
2021/04/30 08:06:15;;;;;;;14.27;7.25;;;9.30;69.20;;;;;;5052078;28;20373;-69
2021/04/30 08:08:41;;;;;;;12.00;6.00;;;9.40;69.00;;;;;;5045640;28;20412;-70
2021/04/30 08:11:08;;;;;;;12.93;7.63;;;9.40;69.30;;;;;;5062091;28;20040;-70
2021/04/30 08:13:35;;;;;;;10.73;7.20;;;9.40;69.20;;;;;;5052848;28;20028;-70
2021/04/30 08:16:02;;;;;;;12.07;7.45;;;9.40;69.20;;;;;;5053198;28;20021;-70
2021/04/30 08:18:27;;;;;;;13.65;8.20;;;9.50;70.70;;;;;;5052335;28;20024;-71
2021/04/30 08:20:53;;;;;;;12.18;8.02;;;9.60;71.50;;;;;;5052300;28;20025;-70
2021/04/30 08:23:19;;;;;;;11.73;7.75;;;9.60;70.80;;;;;;5051183;28;20450;-71
2021/04/30 08:25:45;;;;;;;14.05;8.07;;;9.50;71.60;;;;;;5050631;28;20025;-71
2021/04/30 08:28:10;;;;;;;13.85;8.48;;;9.60;71.40;;;;;;5051049;28;20032;-71
2021/04/30 08:30:36;;;;;;;13.13;7.75;;;9.60;71.30;;;;;;5051743;28;20017;-73
2021/04/30 08:33:02;;;;;;;14.07;8.45;;;9.60;71.50;;;;;;5050239;28;20469;-72
2021/04/30 08:35:29;;;;;;;15.23;8.73;;;9.60;71.60;;;;;;5051550;28;20017;-70
2021/04/30 08:37:55;;;;;;;16.73;8.35;;;9.60;70.50;;;;;;5051383;28;20017;-70
2021/04/30 08:40:21;;;;;;;14.70;7.75;;;9.60;69.70;;;;;;5051466;28;20040;-70
2021/04/30 08:42:48;;;;;;;12.52;8.18;;;9.60;70.20;;;;;;5050610;28;20107;-69
2021/04/30 08:45:15;;;;;;;17.25;8.70;;;9.70;70.50;;;;;;5052392;28;20025;-70
2021/04/30 08:47:42;;;;;;;13.25;8.70;;;9.70;70.90;;;;;;5050756;28;20029;-71
2021/04/30 08:50:07;;;;;;;14.82;8.48;;;9.80;72.10;;;;;;5052671;28;20029;-70
2021/04/30 08:52:33;;;;;;;15.18;8.63;;;9.70;71.10;;;;;;5050886;28;20017;-70
2021/04/30 08:55:04;;;;;;;15.23;9.20;;;9.60;71.80;;;;;;5051762;28;20021;-70
2021/04/30 08:57:30;;;;;;;13.68;7.88;;;9.50;72.20;;;;;;5051292;28;20028;-70
2021/04/30 08:59:59;;;;;;;16.00;8.60;;;9.50;73.00;;;;;;5051894;28;20123;-70
2021/04/30 09:02:27;;;;;;;14.40;8.73;;;9.50;73.90;;;;;;5050952;28;20060;-71
2021/04/30 09:04:54;;;;;;;12.98;8.13;;;9.50;74.70;;;;;;5051642;28;20029;-71
2021/04/30 09:07:24;;;;;;;15.65;9.25;;;9.50;74.60;;;;;;5052320;28;20025;-71
2021/04/30 09:10:00;;;;;;;13.90;8.30;;;9.50;74.80;;;;;;5054510;28;20029;-69
2021/04/30 09:12:26;;;;;;;15.15;8.85;;;9.50;75.80;;;;;;5049955;28;20032;-72
2021/04/30 09:14:52;;;;;;;15.20;8.95;;;9.50;75.60;;;;;;5051544;28;20036;-70
2021/04/30 09:17:19;;;;;;;16.17;9.18;;;9.60;75.40;;;;;;5051137;28;20450;-69
2021/04/30 09:19:52;;;;;;;18.00;8.93;;;9.60;76.40;;;;;;5051198;28;20117;-71
2021/04/30 09:22:30;;;;;;;16.85;8.95;;;9.60;76.80;;;;;;5048093;28;20028;-71
2021/04/30 09:24:59;;;;;;;14.80;8.93;;;9.70;76.10;;;;;;5050531;28;20086;-71
2021/04/30 09:27:40;;;;;;;13.77;8.23;;;9.80;75.60;;;;;;5049492;28;20025;-71
2021/04/30 09:30:21;;;;;;;14.38;8.70;;;9.70;74.80;;;;;;5064658;28;20036;-71
2021/04/30 09:33:02;;;;;;;13.25;7.60;;;9.70;75.00;;;;;;5063807;28;20059;-71
2021/04/30 09:35:28;;;;;;;14.75;8.10;;;9.70;76.70;;;;;;5064835;28;20021;-71
2021/04/30 09:37:57;;;;;;;15.20;8.43;;;9.80;77.10;;;;;;5049430;28;20020;-71
2021/04/30 09:40:31;;;;;;;13.60;8.00;;;9.60;74.30;;;;;;5050157;28;20021;-71
2021/04/30 09:43:05;;;;;;;14.80;7.90;;;9.60;74.60;;;;;;5050251;28;20017;-71
2021/04/30 09:45:32;;;;;;;17.67;8.32;;;9.70;73.70;;;;;;5051631;28;20116;-72
2021/04/30 09:48:01;;;;;;;14.35;7.95;;;9.60;73.70;;;;;;5053569;28;20107;-71
2021/04/30 09:50:29;;;;;;;14.82;8.95;;;9.60;74.90;;;;;;5055322;28;20075;-72
2021/04/30 09:53:04;;;;;;;15.35;8.65;;;9.80;76.40;;;;;;5053702;28;20024;-71
2021/04/30 09:55:44;;;;;;;14.60;8.13;;;9.90;77.10;;;;;;5055522;28;20032;-71
2021/04/30 09:58:19;;;;;;;14.70;8.77;;;9.80;74.60;;;;;;5055181;28;20100;-71
2021/04/30 10:00:47;;;;;;;12.65;7.53;;;9.70;75.30;;;;;;5053670;28;20045;-70
2021/04/30 10:03:23;;;;;;;11.68;7.55;;;9.70;74.30;;;;;;5053563;28;20039;-71
2021/04/30 10:06:10;;;;;;;14.20;7.55;;;9.70;74.70;;;;;;5053169;28;20055;-70
2021/04/30 10:08:37;;;;;;;11.82;7.70;;;9.70;75.90;;;;;;5054947;28;20047;-70
2021/04/30 10:11:03;;;;;;;12.80;7.38;;;9.70;76.90;;;;;;5054030;28;20040;-70
2021/04/30 10:13:29;;;;;;;13.10;7.72;;;9.50;77.20;;;;;;5054745;28;20100;-70
2021/04/30 10:15:55;;;;;;;11.90;7.50;;;9.50;77.70;;;;;;5054700;28;20116;-71
2021/04/30 10:18:21;;;;;;;13.50;7.55;;;9.50;77.80;;;;;;5055161;28;20025;-69
2021/04/30 10:20:47;;;;;;;14.30;8.25;;;9.40;77.10;;;;;;5052573;28;20039;-71
2021/04/30 10:23:19;;;;;;;12.88;7.78;;;9.40;78.10;;;;;;5055022;28;20029;-71
2021/04/30 10:25:47;;;;;;;16.67;8.02;;;9.40;79.70;;;;;;5054564;28;20027;-69
2021/04/30 10:28:17;;;;;;;13.23;7.32;;;9.50;79.50;;;;;;5054103;28;20446;-71
2021/04/30 10:30:55;;;;;;;12.57;7.93;;;9.40;79.80;;;;;;5053368;28;20025;-70
2021/04/30 10:33:50;;;;;;;13.30;7.85;;;9.30;79.10;;;;;;5054214;28;20021;-70
2021/04/30 10:36:31;;;;;;;12.65;7.55;;;9.40;79.20;;;;;;5053270;28;20497;-69
2021/04/30 10:38:58;;;;;;;14.27;8.52;;;9.40;79.80;;;;;;5051895;28;20045;-69
2021/04/30 10:41:34;;;;;;;16.60;8.40;;;9.50;79.40;;;;;;5074060;28;20068;-71
2021/04/30 10:44:28;;;;;;;16.45;9.00;;;9.50;79.80;;;;;;5056540;28;20021;-70
2021/04/30 10:47:12;;;;;;;15.02;7.82;;;9.50;80.40;;;;;;5051808;28;20056;-70
2021/04/30 10:49:39;;;;;;;14.93;8.40;;;9.60;80.80;;;;;;5058663;28;20060;-70
2021/04/30 10:52:05;;;;;;;14.18;7.88;;;9.60;80.50;;;;;;5053899;28;20032;-70
2021/04/30 10:54:38;;;;;;;13.40;8.20;;;9.60;79.80;;;;;;5053926;28;20096;-70
2021/04/30 10:57:13;;;;;;;18.10;9.05;;;9.60;79.60;;;;;;5052488;28;20025;-72
2021/04/30 10:59:47;;;;;;;14.30;7.82;;;9.60;79.40;;;;;;5053093;28;20112;-69
2021/04/30 11:02:21;;;;;;;129.05;54.90;;;9.70;79.50;;;;;;5054458;28;20043;-70
2021/04/30 11:05:09;;;;;;;41.30;22.05;;;9.70;79.30;;;;;;5052697;28;20377;-70
2021/04/30 11:07:46;;;;;;;20.20;11.23;;;9.70;80.10;;;;;;5054513;28;20017;-70
2021/04/30 11:10:26;;;;;;;17.25;8.95;;;9.70;80.50;;;;;;5053330;28;20377;-72
2021/04/30 11:12:58;;;;;;;13.88;8.50;;;9.70;79.70;;;;;;5053505;28;20025;-72
2021/04/30 11:15:25;;;;;;;15.07;8.45;;;9.70;79.40;;;;;;5052215;28;20021;-71
2021/04/30 11:18:02;;;;;;;14.05;8.35;;;9.70;79.00;;;;;;5053774;28;20025;-72
2021/04/30 11:20:30;;;;;;;15.38;8.98;;;9.70;79.00;;;;;;5054016;28;20017;-70
2021/04/30 11:23:22;;;;;;;16.52;8.32;;;9.70;79.10;;;;;;5052520;28;20028;-70
2021/04/30 11:25:57;;;;;;;;;;;9.70;79.80;;;;;;5053829;28;20024;-71
2021/04/30 11:28:43;;;;;;;13.20;7.50;;;9.60;79.50;;;;;;5052845;28;19905;-71
2021/04/30 11:31:24;;;;;;;11.90;7.15;;;9.70;78.70;;;;;;5035220;28;20091;-71
2021/04/30 11:34:15;;;;;;;13.48;7.40;;;9.80;77.00;;;;;;5052053;28;20130;-71
2021/04/30 11:36:48;;;;;;;14.10;7.10;;;9.70;77.90;;;;;;5038207;28;20064;-71
2021/04/30 11:39:24;;;;;;;12.02;7.60;;;9.60;77.90;;;;;;5052374;28;20049;-72
2021/04/30 11:41:55;;;;;;;12.80;7.50;;;9.60;77.80;;;;;;5015526;28;20033;-71
2021/04/30 11:44:21;;;;;;;13.57;7.65;;;9.70;79.10;;;;;;5018195;28;20116;-70
2021/04/30 11:46:58;;;;;;;14.05;7.28;;;9.80;78.20;;;;;;5015591;28;20112;-72
2021/04/30 11:49:24;;;;;;;14.63;7.60;;;9.70;78.50;;;;;;5015838;28;20028;-71
2021/04/30 11:51:50;;;;;;;13.27;7.63;;;9.70;79.30;;;;;;5015758;28;20028;-71
2021/04/30 11:54:26;;;;;;;13.85;7.57;;;9.70;78.70;;;;;;5016242;28;20017;-71
2021/04/30 11:57:02;;;;;;;12.88;7.72;;;9.70;78.80;;;;;;5033517;28;20024;-71
2021/04/30 11:59:28;;;;;;;11.82;7.20;;;9.80;79.00;;;;;;5016199;28;20358;-71
2021/04/30 12:02:00;;;;;;;11.27;6.95;;;9.90;77.70;;;;;;5031708;28;20074;-71
2021/04/30 12:04:44;;;;;;;11.48;6.60;;;9.90;76.80;;;;;;5015934;28;20030;-70
2021/04/30 12:07:14;;;;;;;10.55;6.10;;;10.00;77.30;;;;;;5015566;28;20072;-70
2021/04/30 12:09:41;;;;;;;12.43;6.85;;;10.00;77.20;;;;;;5015680;28;20071;-71
2021/04/30 12:12:14;;;;;;;13.25;7.32;;;10.10;77.30;;;;;;5009903;28;20682;-71
2021/04/30 12:15:01;;;;;;;12.70;7.10;;;10.10;77.80;;;;;;4998458;28;20108;-74
2021/04/30 12:17:28;;;;;;;11.85;7.03;;;10.10;77.50;;;;;;5015715;28;20384;-71
2021/04/30 12:20:08;;;;;;;14.63;7.13;;;10.20;77.60;;;;;;5013927;28;20083;-72
2021/04/30 12:22:42;;;;;;;13.27;7.03;;;10.30;78.50;;;;;;5032111;28;20461;-71
2021/04/30 12:25:20;;;;;;;11.32;6.82;;;10.30;78.80;;;;;;5026898;28;20048;-71
2021/04/30 12:27:46;;;;;;;11.45;6.97;;;10.40;78.90;;;;;;5015114;28;20033;-70
2021/04/30 12:30:23;;;;;;;10.10;6.45;;;10.30;77.90;;;;;;5032375;28;20017;-72
2021/04/30 12:32:49;;;;;;;12.10;6.07;;;10.30;77.50;;;;;;5032419;28;20017;-71
2021/04/30 12:35:16;;;;;;;13.43;6.40;;;10.20;76.10;;;;;;5032429;28;20028;-73
2021/04/30 12:37:41;;;;;;;9.57;6.60;;;10.10;76.20;;;;;;5032476;28;20021;-71
2021/04/30 12:40:08;;;;;;;10.48;6.63;;;10.10;76.00;;;;;;5051338;28;20072;-71
2021/04/30 12:42:46;;;;;;;11.25;5.97;;;10.10;74.90;;;;;;5051281;28;20041;-71
2021/04/30 12:45:14;;;;;;;11.45;6.30;;;10.10;77.00;;;;;;5051704;28;20032;-71
2021/04/30 12:47:41;;;;;;;14.07;7.25;;;10.10;76.80;;;;;;5050690;28;20035;-71
2021/04/30 12:50:08;;;;;;;9.38;5.82;;;10.10;75.50;;;;;;5049903;28;20039;-69
2021/04/30 12:52:36;;;;;;;11.23;6.40;;;10.00;75.60;;;;;;5050734;28;20449;-70
2021/04/30 12:55:23;;;;;;;10.15;6.38;;;10.00;76.50;;;;;;5051341;28;20481;-70
2021/04/30 12:58:01;;;;;;;12.45;7.00;;;9.90;76.90;;;;;;5064012;28;20043;-71
2021/04/30 13:00:30;;;;;;;11.82;6.43;;;10.00;77.20;;;;;;5050400;28;20050;-71